createdAt,value
2023-01-07T05:06:49.890Z,-88
2023-01-07T05:09:17.893Z,-88
2023-01-07T05:11:45.988Z,-87
2023-01-07T05:14:14.494Z,-87
2023-01-07T05:16:42.828Z,-84
2023-01-07T05:19:12.268Z,-78
2023-01-07T05:21:40.610Z,-77
2023-01-07T05:24:11.125Z,-76
2023-01-07T05:26:39.605Z,-77
2023-01-07T05:29:08.378Z,-77
2023-01-07T05:31:37.248Z,-77
2023-01-07T05:34:05.581Z,-79
2023-01-07T05:36:34.003Z,-77
2023-01-07T05:39:02.582Z,-79
2023-01-07T05:41:34.265Z,-78
2023-01-07T05:44:02.874Z,-79
2023-01-07T05:46:31.252Z,-79
2023-01-07T05:48:59.799Z,-79
2023-01-07T05:51:27.974Z,-78
2023-01-07T05:53:56.592Z,-78
2023-01-07T05:56:25.613Z,-79
2023-01-07T05:58:55.722Z,-79
2023-01-07T06:01:24.572Z,-78
2023-01-07T06:03:53.252Z,-77
2023-01-07T06:06:21.598Z,-77
2023-01-07T06:08:50.126Z,-76
2023-01-07T06:11:18.532Z,-79
2023-01-07T06:13:47.128Z,-79
2023-01-07T06:16:17.897Z,-79
2023-01-07T06:18:46.439Z,-79
2023-01-07T06:21:16.428Z,-79
2023-01-07T06:23:45.072Z,-78
2023-01-07T06:26:13.362Z,-79
2023-01-07T06:28:41.573Z,-79
2023-01-07T06:31:11.541Z,-78
2023-01-07T06:33:41.793Z,-79
2023-01-07T06:36:10.509Z,-78
2023-01-07T06:38:39.225Z,-79
2023-01-07T06:41:08.111Z,-78
2023-01-07T06:43:36.534Z,-78
2023-01-07T06:46:05.111Z,-78
2023-01-07T06:48:33.528Z,-79
2023-01-07T06:51:03.842Z,-78
2023-01-07T06:53:32.502Z,-79
2023-01-07T06:56:00.973Z,-78
2023-01-07T06:58:29.728Z,-78
2023-01-07T07:00:58.328Z,-79
2023-01-07T07:03:26.671Z,-79
2023-01-07T07:05:55.137Z,-79
2023-01-07T07:08:25.456Z,-79
2023-01-07T07:10:53.864Z,-79
2023-01-07T07:13:22.322Z,-79
2023-01-07T07:15:51.057Z,-80
2023-01-07T07:18:19.669Z,-79
2023-01-07T07:20:48.985Z,-79
2023-01-07T07:23:17.735Z,-79
2023-01-07T07:25:47.485Z,-79
2023-01-07T07:28:17.296Z,-79
2023-01-07T07:30:47.827Z,-78
2023-01-07T07:33:19.518Z,-79
2023-01-07T07:35:48.331Z,-78
2023-01-07T07:38:19.250Z,-79
2023-01-07T07:40:49.392Z,-79
2023-01-07T07:43:17.913Z,-79
2023-01-07T07:45:46.671Z,-79
2023-01-07T07:48:16.356Z,-79
2023-01-07T07:50:44.995Z,-79
2023-01-07T07:53:14.423Z,-77
2023-01-07T07:55:42.842Z,-79
2023-01-07T07:58:12.694Z,-79
2023-01-07T08:00:40.993Z,-79
2023-01-07T08:03:09.549Z,-80
2023-01-07T08:05:41.385Z,-79
2023-01-07T08:08:11.593Z,-79
2023-01-07T08:10:40.436Z,-79
2023-01-07T08:13:09.946Z,-79
2023-01-07T08:15:40.185Z,-79
2023-01-07T08:18:10.437Z,-79
2023-01-07T08:20:39.255Z,-84
2023-01-07T08:23:09.096Z,-84
2023-01-07T08:25:37.607Z,-83
2023-01-07T08:28:06.964Z,-83
2023-01-07T08:30:35.528Z,-83
2023-01-07T08:33:07.778Z,-83
2023-01-07T08:35:36.272Z,-83
2023-01-07T08:38:05.675Z,-84
2023-01-07T08:40:34.292Z,-83
2023-01-07T08:43:03.089Z,-83
2023-01-07T08:45:33.428Z,-83
2023-01-07T08:48:02.201Z,-83
2023-01-07T08:50:34.358Z,-82
2023-01-07T08:53:03.212Z,-82
2023-01-07T08:55:32.256Z,-83
2023-01-07T08:58:00.795Z,-83
2023-01-07T09:00:29.236Z,-83
2023-01-07T09:02:57.865Z,-82
2023-01-07T09:05:26.377Z,-83
2023-01-07T09:07:57.763Z,-83
2023-01-07T09:10:26.937Z,-83
2023-01-07T09:12:55.184Z,-83
2023-01-07T09:15:23.744Z,-82
2023-01-07T09:17:52.245Z,-83
2023-01-07T09:20:20.443Z,-84
2023-01-07T09:22:48.850Z,-82
2023-01-07T09:25:19.587Z,-83
2023-01-07T09:27:49.483Z,-82
2023-01-07T09:30:18.445Z,-83
2023-01-07T09:32:47.267Z,-84
2023-01-07T09:35:16.453Z,-83
2023-01-07T09:37:44.859Z,-83
2023-01-07T09:40:25.254Z,-83
2023-01-07T09:43:00.032Z,-82
2023-01-07T09:45:30.540Z,-84
2023-01-07T09:48:01.921Z,-83
2023-01-07T09:50:43.848Z,-83
2023-01-07T09:53:15.821Z,-83
2023-01-07T09:56:11.932Z,-84
2023-01-07T09:58:37.815Z,-83
2023-01-07T10:01:11.847Z,-83
2023-01-07T10:03:56.153Z,-83
2023-01-07T10:06:42.332Z,-84
2023-01-07T10:09:20.355Z,-83
2023-01-07T10:11:57.729Z,-83
2023-01-07T10:15:03.394Z,-84
2023-01-07T10:17:46.080Z,-83
2023-01-07T10:20:22.057Z,-84
2023-01-07T10:22:53.592Z,-84
2023-01-07T10:25:24.436Z,-85
2023-01-07T10:27:55.624Z,-82
2023-01-07T10:30:26.422Z,-84
2023-01-07T10:33:00.777Z,-82
2023-01-07T10:35:30.615Z,-82
2023-01-07T10:38:00.255Z,-83
2023-01-07T10:40:34.442Z,-83
2023-01-07T10:43:11.480Z,-83
2023-01-07T10:46:00.840Z,-83
2023-01-07T10:49:06.176Z,-83
2023-01-07T10:51:51.289Z,-84
2023-01-07T10:54:33.008Z,-83
2023-01-07T10:57:05.211Z,-82
2023-01-07T10:59:35.204Z,-83
2023-01-07T11:02:04.713Z,-83
2023-01-07T11:04:33.564Z,-84
2023-01-07T11:07:06.564Z,-83
2023-01-07T11:09:38.510Z,-83
2023-01-07T11:12:10.479Z,-83
2023-01-07T11:14:42.541Z,-85
2023-01-07T11:17:16.029Z,-83
2023-01-07T11:19:49.052Z,-84
2023-01-07T11:22:34.293Z,-84
2023-01-07T11:25:03.636Z,-84
2023-01-07T11:27:34.562Z,-82
2023-01-07T11:30:07.762Z,-83
2023-01-07T11:32:38.560Z,-84
2023-01-07T11:35:09.397Z,-85
2023-01-07T11:37:39.614Z,-82
2023-01-07T11:40:23.731Z,-84
2023-01-07T11:42:54.239Z,-84
2023-01-07T11:45:26.779Z,-86
2023-01-07T11:48:00.787Z,-84
2023-01-07T11:50:34.982Z,-82
2023-01-07T11:53:13.260Z,-84
2023-01-07T11:55:42.054Z,-82
2023-01-07T11:58:30.093Z,-81
2023-01-07T12:01:28.984Z,-82
2023-01-07T12:04:14.486Z,-83
2023-01-07T12:06:46.458Z,-84
2023-01-07T12:09:24.137Z,-84
2023-01-07T12:11:54.179Z,-81
2023-01-07T12:14:27.686Z,-82
2023-01-07T12:17:07.015Z,-84
2023-01-07T12:19:52.626Z,-83
2023-01-07T12:22:29.842Z,-82
2023-01-07T12:25:24.635Z,-83
2023-01-07T12:28:05.263Z,-83
2023-01-07T12:30:44.160Z,-84
2023-01-07T12:33:20.946Z,-82
2023-01-07T12:35:49.763Z,-83
2023-01-07T12:38:22.305Z,-83
2023-01-07T12:40:53.256Z,-83
2023-01-07T12:43:26.272Z,-82
2023-01-07T12:45:57.141Z,-83
2023-01-07T12:48:33.115Z,-83
2023-01-07T12:51:04.687Z,-83
2023-01-07T12:53:36.702Z,-83
2023-01-07T12:56:09.136Z,-84
2023-01-07T12:58:45.094Z,-85
2023-01-07T13:01:27.204Z,-82
2023-01-07T13:04:06.817Z,-83
2023-01-07T13:06:45.000Z,-84
2023-01-07T13:09:23.389Z,-82
2023-01-07T13:12:40.629Z,-83
2023-01-07T13:15:04.968Z,-83
2023-01-07T13:17:34.231Z,-84
2023-01-07T13:20:05.035Z,-84
2023-01-07T13:22:36.006Z,-84
2023-01-07T13:25:15.434Z,-84
2023-01-07T13:28:04.269Z,-83
2023-01-07T13:30:39.814Z,-83
2023-01-07T13:33:13.619Z,-83
2023-01-07T13:36:05.439Z,-84
2023-01-07T13:39:22.614Z,-83
2023-01-07T13:42:17.272Z,-83
2023-01-07T13:44:59.812Z,-83
2023-01-07T13:47:38.796Z,-83
2023-01-07T13:50:08.261Z,-83
2023-01-07T13:52:43.302Z,-83
2023-01-07T13:55:32.519Z,-83
2023-01-07T13:58:02.911Z,-83
2023-01-07T14:00:45.684Z,-84
2023-01-07T14:03:34.283Z,-85
2023-01-07T14:06:42.757Z,-85
2023-01-07T14:09:36.898Z,-83
2023-01-07T14:12:36.387Z,-83
2023-01-07T14:15:31.035Z,-84
2023-01-07T14:18:09.521Z,-84
2023-01-07T14:20:45.917Z,-83
2023-01-07T14:23:22.742Z,-83
2023-01-07T14:26:02.898Z,-84
2023-01-07T14:28:54.042Z,-84
2023-01-07T14:31:25.296Z,-85
2023-01-07T14:33:58.781Z,-84
2023-01-07T14:37:06.744Z,-85
2023-01-07T14:39:36.973Z,-83
2023-01-07T14:42:30.542Z,-84
2023-01-07T14:44:59.188Z,-84
2023-01-07T14:47:55.673Z,-83
2023-01-07T14:50:32.938Z,-83
2023-01-07T14:53:40.022Z,-83
2023-01-07T14:56:18.855Z,-83
2023-01-07T14:58:59.356Z,-84
2023-01-07T15:01:48.756Z,-83
2023-01-07T15:05:00.031Z,-84
2023-01-07T15:07:31.719Z,-83
2023-01-07T15:10:20.080Z,-84
2023-01-07T15:13:20.689Z,-82
2023-01-07T15:16:06.317Z,-82
2023-01-07T15:18:43.245Z,-83
2023-01-07T15:21:19.297Z,-81
2023-01-07T15:23:52.683Z,-84
2023-01-07T15:26:26.845Z,-83
2023-01-07T15:28:59.994Z,-85
2023-01-07T15:31:45.898Z,-83
2023-01-07T15:34:15.121Z,-84
2023-01-07T15:36:45.913Z,-85
2023-01-07T15:39:20.869Z,-83
2023-01-07T15:41:53.018Z,-83
2023-01-07T15:44:23.739Z,-85
2023-01-07T15:46:54.165Z,-84
2023-01-07T15:49:24.995Z,-84
2023-01-07T15:51:56.880Z,-85
2023-01-07T15:54:32.012Z,-83
2023-01-07T15:57:12.140Z,-84
2023-01-07T15:59:45.249Z,-85
2023-01-07T16:02:23.716Z,-84
2023-01-07T16:04:54.390Z,-83
2023-01-07T16:07:25.454Z,-84
2023-01-07T16:09:54.387Z,-84
2023-01-07T16:12:33.124Z,-84
2023-01-07T16:15:03.029Z,-85
2023-01-07T16:17:35.953Z,-84
2023-01-07T16:20:17.483Z,-84
2023-01-07T16:22:48.458Z,-85
2023-01-07T16:25:24.078Z,-83
2023-01-07T16:27:52.798Z,-85
2023-01-07T16:30:22.015Z,-84
2023-01-07T16:32:54.800Z,-85
2023-01-07T16:35:28.279Z,-85
2023-01-07T16:37:56.647Z,-85
2023-01-07T16:40:30.135Z,-84
2023-01-07T16:42:58.786Z,-86
2023-01-07T16:45:32.565Z,-85
2023-01-07T16:48:22.898Z,-86
2023-01-07T16:50:53.291Z,-85
2023-01-07T16:53:28.012Z,-85
2023-01-07T16:56:16.646Z,-83
2023-01-07T16:58:49.940Z,-84
2023-01-07T17:01:20.661Z,-83
2023-01-07T17:03:54.368Z,-82
2023-01-07T17:06:25.852Z,-82
2023-01-07T17:08:55.872Z,-84
2023-01-07T17:11:27.175Z,-85
2023-01-07T17:13:55.570Z,-86
2023-01-07T17:16:27.288Z,-82
2023-01-07T17:19:11.142Z,-83
2023-01-07T17:21:42.519Z,-84
2023-01-07T17:24:27.537Z,-84
2023-01-07T17:26:56.701Z,-84
2023-01-07T17:29:27.268Z,-83
2023-01-07T17:31:55.928Z,-84
2023-01-07T17:34:29.409Z,-83
2023-01-07T17:36:57.662Z,-84
2023-01-07T17:39:25.793Z,-84
2023-01-07T17:42:11.612Z,-84
2023-01-07T17:44:40.164Z,-83
2023-01-07T17:47:12.171Z,-83
2023-01-07T17:49:42.337Z,-82
2023-01-07T17:52:11.447Z,-83
2023-01-07T17:54:42.026Z,-84
2023-01-07T17:57:14.764Z,-84
2023-01-07T17:59:47.991Z,-83
2023-01-07T18:02:19.987Z,-84
2023-01-07T18:04:50.197Z,-84
2023-01-07T18:07:18.900Z,-84
2023-01-07T18:09:47.432Z,-83
2023-01-07T18:12:31.455Z,-83
2023-01-07T18:15:00.194Z,-82
2023-01-07T18:17:28.920Z,-82
2023-01-07T18:19:59.200Z,-83
2023-01-07T18:22:28.128Z,-82
2023-01-07T18:24:56.761Z,-82
2023-01-07T18:27:25.337Z,-83
2023-01-07T18:29:54.412Z,-83
2023-01-07T18:32:23.204Z,-85
2023-01-07T18:34:51.845Z,-85
2023-01-07T18:37:23.385Z,-83
2023-01-07T18:39:51.830Z,-84
2023-01-07T18:42:21.025Z,-84
2023-01-07T18:44:49.484Z,-85
2023-01-07T18:47:18.158Z,-85
2023-01-07T18:49:46.731Z,-85
2023-01-07T18:52:15.436Z,-85
2023-01-07T18:54:46.115Z,-84
2023-01-07T18:57:15.853Z,-85
2023-01-07T18:59:45.193Z,-85
2023-01-07T19:02:21.416Z,-84
2023-01-07T19:04:50.621Z,-83
2023-01-07T19:07:19.972Z,-84
2023-01-07T19:09:49.865Z,-85
2023-01-07T19:12:18.656Z,-84
2023-01-07T19:14:47.265Z,-85
2023-01-07T19:17:15.720Z,-84
2023-01-07T19:19:48.776Z,-85
2023-01-07T19:22:18.346Z,-84
2023-01-07T19:24:46.844Z,-85
2023-01-07T19:27:18.002Z,-86
2023-01-07T19:29:46.569Z,-85
2023-01-07T19:32:15.224Z,-85
2023-01-07T19:34:43.729Z,-85
2023-01-07T19:37:11.938Z,-84
2023-01-07T19:39:42.149Z,-83
2023-01-07T19:42:12.825Z,-84
2023-01-07T19:44:42.916Z,-85
2023-01-07T19:47:11.663Z,-85
2023-01-07T19:49:40.230Z,-85
2023-01-07T19:52:08.279Z,-83
2023-01-07T19:54:36.651Z,-85
2023-01-07T19:57:05.545Z,-86
2023-01-07T19:59:35.242Z,-84
2023-01-07T20:02:06.768Z,-84
2023-01-07T20:04:35.504Z,-85
2023-01-07T20:07:03.985Z,-85
2023-01-07T20:09:32.958Z,-86
2023-01-07T20:12:01.556Z,-86
2023-01-07T20:14:31.030Z,-86
2023-01-07T20:16:59.692Z,-85
2023-01-07T20:19:30.457Z,-85
2023-01-07T20:21:58.759Z,-84
2023-01-07T20:24:27.596Z,-83
2023-01-07T20:26:55.996Z,-85
2023-01-07T20:29:24.604Z,-85
2023-01-07T20:31:53.184Z,-85
2023-01-07T20:34:21.872Z,-85
2023-01-07T20:36:56.168Z,-85
2023-01-07T20:39:24.965Z,-85
2023-01-07T20:41:53.757Z,-83
2023-01-07T20:44:23.197Z,-87
2023-01-07T20:46:52.044Z,-86
2023-01-07T20:49:20.534Z,-84
2023-01-07T20:51:49.330Z,-85
2023-01-07T20:54:19.180Z,-85
2023-01-07T20:56:47.552Z,-85
2023-01-07T20:59:17.519Z,-85
2023-01-07T21:01:46.523Z,-84
2023-01-07T21:04:15.233Z,-84
2023-01-07T21:06:43.434Z,-85
2023-01-07T21:09:11.915Z,-86
2023-01-07T21:11:43.434Z,-85
2023-01-07T21:14:12.030Z,-85
2023-01-07T21:16:40.572Z,-84
2023-01-07T21:19:08.959Z,-84
2023-01-07T21:21:37.745Z,-84
2023-01-07T21:24:07.595Z,-84
2023-01-07T21:26:36.146Z,-85
2023-01-07T21:29:05.830Z,-83
2023-01-07T21:31:34.988Z,-84
2023-01-07T21:34:04.076Z,-85
2023-01-07T21:36:32.758Z,-86
2023-01-07T21:39:03.531Z,-84
2023-01-07T21:41:32.167Z,-85
2023-01-07T21:44:00.658Z,-83
2023-01-07T21:46:30.937Z,-85
2023-01-07T21:49:01.388Z,-83
2023-01-07T21:51:30.324Z,-85
2023-01-07T21:53:59.903Z,-85
2023-01-07T21:56:32.282Z,-85
2023-01-07T21:59:01.272Z,-84
2023-01-07T22:01:31.599Z,-84
2023-01-07T22:04:00.336Z,-85
2023-01-07T22:06:31.063Z,-85
2023-01-07T22:09:01.049Z,-84
2023-01-07T22:11:29.918Z,-85
2023-01-07T22:14:00.630Z,-85
2023-01-07T22:16:32.566Z,-84
2023-01-07T22:19:01.497Z,-84
2023-01-07T22:21:30.212Z,-86
2023-01-07T22:23:58.683Z,-84
2023-01-07T22:26:27.361Z,-85
2023-01-07T22:28:57.112Z,-84
2023-01-07T22:31:28.106Z,-84
2023-01-07T22:33:58.008Z,-83
2023-01-07T22:36:30.834Z,-83
2023-01-07T22:39:03.566Z,-84
2023-01-07T22:41:32.772Z,-84
2023-01-07T22:44:01.799Z,-85
2023-01-07T22:46:32.170Z,-85
